createdAt,value
2023-02-19T00:00:20.885Z,4.48
2023-02-19T00:03:13.650Z,4.49
2023-02-19T00:05:44.251Z,4.52
2023-02-19T00:08:14.500Z,4.56
2023-02-19T00:10:44.794Z,4.60
2023-02-19T00:13:16.143Z,4.64
2023-02-19T00:15:46.293Z,4.65
2023-02-19T00:18:16.725Z,4.62
2023-02-19T00:20:47.333Z,4.60
2023-02-19T00:23:17.716Z,4.58
2023-02-19T00:25:48.132Z,4.54
2023-02-19T00:28:19.051Z,4.50
2023-02-19T00:30:49.370Z,4.43
2023-02-19T00:33:19.667Z,4.40
2023-02-19T00:35:50.421Z,4.36
2023-02-19T00:38:20.636Z,4.33
2023-02-19T00:40:50.852Z,4.31
2023-02-19T00:43:22.190Z,4.33
2023-02-19T00:45:52.966Z,4.36
2023-02-19T00:48:23.339Z,4.38
2023-02-19T00:50:53.471Z,4.43
2023-02-19T00:53:24.435Z,4.47
2023-02-19T00:55:55.027Z,4.53
2023-02-19T00:58:25.616Z,4.58
2023-02-19T01:00:55.980Z,4.60
2023-02-19T01:03:26.720Z,4.62
2023-02-19T01:05:56.994Z,4.63
2023-02-19T01:08:28.137Z,4.62
2023-02-19T01:10:58.515Z,4.60
2023-02-19T01:13:29.060Z,4.57
2023-02-19T01:16:06.263Z,4.54
2023-02-19T01:18:37.212Z,4.50
2023-02-19T01:21:08.929Z,4.48
2023-02-19T01:23:39.899Z,4.45
2023-02-19T01:26:12.558Z,4.45
2023-02-19T01:28:43.310Z,4.47
2023-02-19T01:31:16.638Z,4.51
2023-02-19T01:33:47.978Z,4.55
2023-02-19T01:36:18.535Z,4.62
2023-02-19T01:38:49.528Z,4.69
2023-02-19T01:41:22.578Z,4.75
2023-02-19T01:43:59.777Z,4.77
2023-02-19T01:46:32.407Z,4.74
2023-02-19T01:49:05.561Z,4.68
2023-02-19T01:51:38.928Z,4.62
2023-02-19T01:54:11.235Z,4.59
2023-02-19T01:56:44.309Z,4.56
2023-02-19T01:59:15.314Z,4.54
2023-02-19T02:01:45.693Z,4.54
2023-02-19T02:04:17.183Z,4.54
2023-02-19T02:06:50.506Z,4.51
2023-02-19T02:09:40.280Z,4.47
2023-02-19T02:12:12.554Z,4.43
2023-02-19T02:14:45.328Z,4.41
2023-02-19T02:17:19.530Z,4.38
2023-02-19T02:20:21.102Z,4.32
2023-02-19T02:22:55.595Z,4.28
2023-02-19T02:25:41.396Z,4.30
2023-02-19T02:28:28.096Z,4.34
2023-02-19T02:31:03.047Z,4.38
2023-02-19T02:33:39.372Z,4.41
2023-02-19T02:36:15.502Z,4.45
2023-02-19T02:38:48.651Z,4.49
2023-02-19T02:41:18.870Z,4.53
2023-02-19T02:43:49.133Z,4.58
2023-02-19T02:46:23.156Z,4.62
2023-02-19T02:48:56.268Z,4.67
2023-02-19T02:51:29.799Z,4.71
2023-02-19T02:54:20.527Z,4.76
2023-02-19T02:56:51.821Z,4.80
2023-02-19T02:59:24.479Z,4.83
2023-02-19T03:02:12.694Z,4.86
2023-02-19T03:05:07.590Z,4.90
2023-02-19T03:07:39.386Z,4.92
2023-02-19T03:10:12.783Z,4.95
2023-02-19T03:13:01.769Z,4.97
2023-02-19T03:15:55.693Z,5.00
2023-02-19T03:18:46.190Z,5.05
2023-02-19T03:21:18.434Z,5.07
2023-02-19T03:24:06.580Z,5.09
2023-02-19T03:26:38.847Z,5.15
2023-02-19T03:29:26.350Z,5.21
2023-02-19T03:31:59.997Z,5.27
2023-02-19T03:34:33.045Z,5.31
2023-02-19T03:37:09.995Z,5.36
2023-02-19T03:39:46.334Z,5.42
2023-02-19T03:42:21.684Z,5.46
2023-02-19T03:45:10.939Z,5.51
2023-02-19T03:47:47.982Z,5.58
2023-02-19T03:50:18.433Z,5.64
2023-02-19T03:52:56.650Z,5.68
2023-02-19T03:55:31.099Z,5.73
2023-02-19T03:58:04.993Z,5.78
2023-02-19T04:00:39.523Z,5.81
2023-02-19T04:03:16.327Z,5.81
2023-02-19T04:05:50.932Z,5.79
2023-02-19T04:08:22.910Z,5.80
2023-02-19T04:10:54.431Z,5.81
2023-02-19T04:13:27.180Z,5.82
2023-02-19T04:16:01.484Z,5.83
2023-02-19T04:18:33.999Z,5.84
2023-02-19T04:21:05.951Z,5.84
2023-02-19T04:23:39.257Z,5.83
2023-02-19T04:26:10.262Z,5.83
2023-02-19T04:28:43.075Z,5.83
2023-02-19T04:31:14.159Z,5.84
2023-02-19T04:33:45.356Z,5.86
2023-02-19T04:36:15.703Z,5.85
2023-02-19T04:38:46.806Z,5.85
2023-02-19T04:41:18.418Z,5.88
2023-02-19T04:43:48.581Z,5.91
2023-02-19T04:46:19.374Z,5.96
2023-02-19T04:48:52.097Z,6.01
2023-02-19T04:51:22.803Z,6.07
2023-02-19T04:53:53.273Z,6.15
2023-02-19T04:56:24.163Z,6.23
2023-02-19T04:58:54.372Z,6.30
2023-02-19T05:01:24.645Z,6.37
2023-02-19T05:03:56.194Z,6.47
2023-02-19T05:06:30.370Z,6.55
2023-02-19T05:09:03.079Z,6.63
2023-02-19T05:11:33.623Z,6.78
2023-02-19T05:14:04.323Z,6.93
2023-02-19T05:16:36.506Z,7.09
2023-02-19T05:19:08.202Z,7.23
2023-02-19T05:21:41.719Z,7.39
2023-02-19T05:24:13.885Z,7.62
2023-02-19T05:26:45.734Z,7.85
2023-02-19T05:29:17.070Z,8.13
2023-02-19T05:31:48.771Z,8.43
2023-02-19T05:34:19.196Z,8.64
2023-02-19T05:36:50.867Z,8.76
2023-02-19T05:39:21.499Z,8.85
2023-02-19T05:41:52.396Z,8.89
2023-02-19T05:44:22.991Z,9.05
2023-02-19T05:46:53.467Z,9.18
2023-02-19T05:49:23.979Z,9.30
2023-02-19T05:51:55.255Z,9.46
2023-02-19T05:54:25.493Z,9.65
2023-02-19T05:56:55.948Z,9.81
2023-02-19T05:59:26.963Z,9.93
2023-02-19T06:01:58.103Z,10.06
2023-02-19T06:04:28.704Z,10.19
2023-02-19T06:06:59.353Z,10.28
2023-02-19T06:09:29.632Z,10.35
2023-02-19T06:12:00.064Z,10.41
2023-02-19T06:14:30.555Z,10.49
2023-02-19T06:17:01.375Z,10.61
2023-02-19T06:19:31.646Z,10.81
2023-02-19T06:22:02.003Z,11.24
2023-02-19T06:24:32.605Z,11.89
2023-02-19T06:27:02.824Z,12.48
2023-02-19T06:29:34.169Z,12.83
2023-02-19T06:32:04.929Z,12.95
2023-02-19T06:34:35.891Z,12.97
2023-02-19T06:37:06.217Z,13.00
2023-02-19T06:39:37.971Z,13.12
2023-02-19T06:42:08.581Z,13.76
2023-02-19T06:44:38.812Z,15.78
2023-02-19T06:47:09.128Z,18.18
2023-02-19T06:49:40.576Z,20.40
2023-02-19T06:52:11.162Z,22.50
2023-02-19T06:54:43.711Z,24.84
2023-02-19T06:57:14.574Z,27.06
2023-02-19T06:59:45.461Z,28.61
2023-02-19T07:02:15.825Z,30.03
2023-02-19T07:04:47.184Z,31.16
2023-02-19T07:07:17.359Z,31.00
2023-02-19T07:09:47.802Z,32.27
2023-02-19T07:12:18.062Z,33.76
2023-02-19T07:14:48.666Z,35.05
2023-02-19T07:17:19.381Z,36.14
2023-02-19T07:19:49.927Z,37.01
2023-02-19T07:22:20.491Z,38.00
2023-02-19T07:24:52.271Z,38.57
2023-02-19T07:27:22.516Z,38.57
2023-02-19T07:29:52.864Z,37.41
2023-02-19T07:32:23.758Z,35.66
2023-02-19T07:34:54.333Z,32.92
2023-02-19T07:37:25.757Z,30.53
2023-02-19T07:39:56.327Z,28.39
2023-02-19T07:42:28.027Z,26.61
2023-02-19T07:45:00.719Z,24.94
2023-02-19T07:47:31.769Z,23.18
2023-02-19T07:50:03.116Z,21.53
2023-02-19T07:52:37.048Z,20.35
2023-02-19T07:55:08.437Z,19.47
2023-02-19T07:57:39.156Z,19.24
2023-02-19T08:00:12.272Z,19.02
2023-02-19T08:03:00.869Z,18.58
2023-02-19T08:05:32.901Z,18.03
2023-02-19T08:08:03.598Z,17.60
2023-02-19T08:10:51.426Z,17.48
2023-02-19T08:13:25.748Z,17.34
2023-02-19T08:16:10.902Z,17.07
2023-02-19T08:18:47.953Z,16.54
2023-02-19T08:21:18.652Z,16.16
2023-02-19T08:23:51.205Z,15.96
2023-02-19T08:26:21.961Z,15.69
2023-02-19T08:28:52.272Z,15.46
2023-02-19T08:31:22.707Z,15.21
2023-02-19T08:33:53.996Z,14.93
2023-02-19T08:36:24.608Z,14.62
2023-02-19T08:38:55.000Z,14.39
2023-02-19T08:41:25.364Z,14.28
2023-02-19T08:43:56.411Z,14.05
2023-02-19T08:46:27.299Z,13.93
2023-02-19T08:48:57.803Z,13.93
2023-02-19T08:51:28.073Z,13.98
2023-02-19T08:53:59.356Z,13.97
2023-02-19T08:56:29.731Z,14.06
2023-02-19T08:59:00.310Z,14.31
2023-02-19T09:01:31.373Z,14.37
2023-02-19T09:04:02.865Z,14.40
2023-02-19T09:06:33.181Z,14.52
2023-02-19T09:09:03.334Z,14.61
2023-02-19T09:11:33.563Z,14.59
2023-02-19T09:14:07.208Z,14.44
2023-02-19T09:16:37.694Z,14.33
2023-02-19T09:19:08.311Z,14.25
2023-02-19T09:21:38.386Z,14.07
2023-02-19T09:24:10.589Z,14.12
2023-02-19T09:26:41.183Z,14.21
2023-02-19T09:29:12.928Z,14.31
2023-02-19T09:31:44.286Z,14.52
2023-02-19T09:34:14.941Z,14.66
2023-02-19T09:36:45.833Z,14.70
2023-02-19T09:39:16.341Z,14.67
2023-02-19T09:41:50.207Z,14.75
2023-02-19T09:44:26.275Z,14.70
2023-02-19T09:46:56.816Z,14.73
2023-02-19T09:49:34.386Z,14.87
2023-02-19T09:52:09.992Z,14.99
2023-02-19T09:54:40.516Z,15.10
2023-02-19T09:57:15.667Z,15.16
2023-02-19T09:59:49.721Z,15.11
2023-02-19T10:02:21.907Z,14.98
2023-02-19T10:04:52.905Z,14.80
2023-02-19T10:07:25.871Z,14.59
2023-02-19T10:09:57.918Z,14.22
2023-02-19T10:12:30.648Z,13.77
2023-02-19T10:15:05.210Z,13.41
2023-02-19T10:17:37.116Z,13.19
2023-02-19T10:20:10.133Z,13.13
2023-02-19T10:22:40.725Z,13.06
2023-02-19T10:25:15.173Z,13.03
2023-02-19T10:27:45.746Z,13.02
2023-02-19T10:30:23.801Z,13.09
2023-02-19T10:33:05.847Z,13.19
2023-02-19T10:35:38.128Z,13.13
2023-02-19T10:38:08.732Z,13.01
2023-02-19T10:40:46.025Z,13.00
2023-02-19T10:43:25.514Z,13.14
2023-02-19T10:46:03.970Z,13.17
2023-02-19T10:48:37.234Z,13.25
2023-02-19T10:51:12.180Z,13.28
2023-02-19T10:53:45.312Z,13.35
2023-02-19T10:56:23.763Z,13.49
2023-02-19T10:58:54.879Z,13.45
2023-02-19T11:01:26.731Z,13.30
2023-02-19T11:04:17.093Z,13.12
2023-02-19T11:06:47.560Z,12.97
2023-02-19T11:09:26.411Z,13.01
2023-02-19T11:11:59.231Z,13.01
2023-02-19T11:14:34.227Z,12.91
2023-02-19T11:17:06.316Z,12.67
2023-02-19T11:19:39.987Z,12.48
2023-02-19T11:22:31.184Z,12.43
2023-02-19T11:25:05.606Z,12.17
2023-02-19T11:27:36.914Z,12.02
2023-02-19T11:30:34.463Z,11.91
2023-02-19T11:46:23.444Z,12.47
2023-02-19T11:49:00.567Z,12.56
2023-02-19T11:51:44.196Z,12.40
2023-02-19T11:54:45.467Z,12.29
2023-02-19T11:57:33.546Z,12.39
2023-02-19T12:00:28.404Z,12.45
2023-02-19T12:03:36.748Z,12.49
2023-02-19T12:06:20.531Z,12.53
2023-02-19T12:09:21.320Z,12.60
2023-02-19T12:12:06.110Z,12.59
2023-02-19T12:14:56.601Z,12.50
2023-02-19T12:17:47.372Z,12.51
2023-02-19T12:20:31.931Z,12.59
2023-02-19T12:23:19.425Z,12.66
2023-02-19T12:25:59.595Z,12.60
2023-02-19T12:34:49.474Z,12.17
2023-02-19T12:37:36.459Z,11.90
2023-02-19T12:40:22.447Z,11.67
2023-02-19T12:43:10.585Z,11.47
2023-02-19T12:45:47.276Z,11.33
2023-02-19T12:48:36.075Z,11.15
2023-02-19T12:51:16.581Z,10.94
2023-02-19T12:53:58.473Z,10.82
2023-02-19T12:56:34.820Z,10.80
2023-02-19T12:59:12.716Z,10.86
2023-02-19T13:01:51.209Z,10.88
2023-02-19T13:04:34.962Z,10.90
2023-02-19T13:07:11.969Z,10.88
2023-02-19T13:09:53.809Z,10.90
2023-02-19T13:12:33.093Z,10.93
2023-02-19T13:15:14.632Z,10.88
2023-02-19T13:18:01.639Z,10.87
2023-02-19T13:20:41.144Z,10.88
2023-02-19T13:23:36.204Z,10.90
2023-02-19T13:26:27.978Z,10.89
2023-02-19T13:29:21.104Z,10.84
2023-02-19T13:32:12.483Z,10.76
2023-02-19T13:34:58.335Z,10.68
2023-02-19T13:37:39.019Z,10.62
2023-02-19T13:40:24.779Z,10.56
2023-02-19T13:43:02.995Z,10.48
2023-02-19T13:45:39.795Z,10.41
2023-02-19T13:48:30.351Z,10.35
2023-02-19T13:51:47.093Z,10.25
2023-02-19T13:54:29.894Z,10.19
2023-02-19T13:57:27.301Z,10.12
2023-02-19T14:00:01.600Z,9.96
2023-02-19T14:02:38.558Z,9.87
2023-02-19T14:05:10.656Z,9.77
2023-02-19T14:07:58.762Z,9.64
2023-02-19T14:11:02.797Z,9.54
2023-02-19T14:14:07.185Z,9.49
2023-02-19T14:17:18.242Z,9.45
2023-02-19T14:19:54.732Z,9.38
2023-02-19T14:23:06.148Z,9.31
2023-02-19T14:25:49.150Z,9.21
2023-02-19T14:28:27.603Z,9.14
2023-02-19T14:31:03.531Z,9.10
2023-02-19T14:33:38.388Z,9.06
2023-02-19T14:36:28.500Z,9.04
2023-02-19T14:39:07.895Z,9.03
2023-02-19T14:41:48.969Z,9.01
2023-02-19T14:44:25.778Z,8.99
2023-02-19T14:47:01.794Z,8.96
2023-02-19T14:49:43.191Z,8.94
2023-02-19T14:52:19.691Z,8.91
2023-02-19T14:54:55.371Z,8.90
2023-02-19T14:57:32.764Z,8.89
2023-02-19T15:00:22.307Z,8.88
2023-02-19T15:02:57.990Z,8.87
2023-02-19T15:05:38.550Z,8.87
2023-02-19T15:08:19.117Z,8.86
2023-02-19T15:10:53.655Z,8.81
2023-02-19T15:13:32.829Z,8.76
2023-02-19T15:16:06.832Z,8.68
2023-02-19T15:18:41.725Z,8.60
2023-02-19T15:21:25.809Z,8.55
2023-02-19T15:24:06.369Z,8.52
2023-02-19T15:26:42.330Z,8.48
2023-02-19T15:29:18.212Z,8.43
2023-02-19T15:31:54.293Z,8.37
2023-02-19T15:34:31.265Z,8.29
2023-02-19T15:37:11.617Z,8.25
2023-02-19T15:39:48.459Z,8.21
2023-02-19T15:42:27.841Z,8.17
2023-02-19T15:45:06.644Z,8.11
2023-02-19T15:47:44.367Z,8.05
2023-02-19T15:50:20.883Z,8.00
2023-02-19T15:53:02.114Z,7.93
2023-02-19T15:55:40.897Z,7.88
2023-02-19T15:58:26.079Z,7.84
2023-02-19T16:01:04.816Z,7.74
2023-02-19T16:03:41.328Z,7.60
2023-02-19T16:06:17.221Z,7.46
2023-02-19T16:09:22.214Z,7.36
2023-02-19T16:12:00.271Z,7.27
2023-02-19T16:14:37.687Z,7.24
2023-02-19T16:17:38.332Z,7.24
2023-02-19T16:20:33.502Z,7.26
2023-02-19T16:23:15.044Z,7.29
2023-02-19T16:25:52.904Z,7.32
2023-02-19T16:28:35.719Z,7.32
2023-02-19T16:31:18.158Z,7.31
2023-02-19T16:33:55.042Z,7.31
2023-02-19T16:36:38.540Z,7.33
2023-02-19T16:39:27.392Z,7.33
2023-02-19T16:42:20.634Z,7.35
2023-02-19T16:44:55.052Z,7.36
2023-02-19T16:47:38.526Z,7.35
2023-02-19T16:50:19.265Z,7.33
2023-02-19T16:52:56.904Z,7.30
2023-02-19T16:55:33.044Z,7.27
2023-02-19T16:58:09.092Z,7.25
2023-02-19T17:00:42.670Z,7.25
2023-02-19T17:03:19.375Z,7.23
2023-02-19T17:05:54.115Z,7.19
2023-02-19T17:08:40.089Z,7.17
2023-02-19T17:11:17.500Z,7.16
2023-02-19T17:13:51.759Z,7.15
2023-02-19T17:16:27.569Z,7.13
2023-02-19T17:19:01.533Z,7.11
2023-02-19T17:21:35.243Z,7.07
2023-02-19T17:24:09.695Z,7.03
2023-02-19T17:26:43.308Z,6.95
2023-02-19T17:29:19.024Z,6.90
2023-02-19T17:31:52.793Z,6.85
2023-02-19T17:34:27.449Z,6.77
2023-02-19T17:37:00.898Z,6.70
2023-02-19T17:39:34.557Z,6.65
2023-02-19T17:42:08.773Z,6.63
2023-02-19T17:44:42.951Z,6.62
2023-02-19T17:47:16.876Z,6.57
2023-02-19T17:49:53.089Z,6.53
2023-02-19T17:52:29.767Z,6.49
2023-02-19T17:55:03.428Z,6.42
2023-02-19T17:57:37.169Z,6.36
2023-02-19T18:00:17.822Z,6.34
2023-02-19T18:02:52.090Z,6.32
2023-02-19T18:05:27.646Z,6.33
2023-02-19T18:08:03.100Z,6.39
2023-02-19T18:10:36.571Z,6.47
2023-02-19T18:13:11.780Z,6.53
2023-02-19T18:15:45.336Z,6.59
2023-02-19T18:18:19.309Z,6.63
2023-02-19T18:20:54.473Z,6.65
2023-02-19T18:23:28.302Z,6.69
2023-02-19T18:26:02.182Z,6.72
2023-02-19T18:28:40.945Z,6.74
2023-02-19T18:31:15.198Z,6.73
2023-02-19T18:33:50.479Z,6.66
2023-02-19T18:36:26.830Z,6.63
2023-02-19T18:39:00.805Z,6.58
2023-02-19T18:41:36.982Z,6.53
2023-02-19T18:44:14.323Z,6.49
2023-02-19T18:46:52.682Z,6.42
2023-02-19T18:49:26.512Z,6.39
2023-02-19T18:52:02.448Z,6.39
2023-02-19T18:54:50.471Z,6.42
2023-02-19T18:57:33.681Z,6.48
2023-02-19T19:00:09.500Z,6.59
2023-02-19T19:02:54.642Z,6.71
2023-02-19T19:05:33.913Z,6.80
2023-02-19T19:08:09.496Z,6.86
2023-02-19T19:10:43.971Z,6.91
2023-02-19T19:13:31.874Z,6.91
2023-02-19T19:16:14.467Z,6.89
2023-02-19T19:18:50.494Z,6.88
2023-02-19T19:21:27.252Z,6.88
2023-02-19T19:24:02.111Z,6.85
2023-02-19T19:26:51.536Z,6.84
2023-02-19T19:29:26.084Z,6.83
2023-02-19T19:32:03.328Z,6.85
2023-02-19T19:34:40.295Z,6.87
2023-02-19T19:37:15.418Z,6.89
2023-02-19T19:39:49.486Z,6.90
2023-02-19T19:42:22.908Z,6.91
2023-02-19T19:45:01.960Z,6.91
2023-02-19T19:47:38.137Z,6.94
2023-02-19T19:50:22.270Z,6.97
2023-02-19T19:53:01.862Z,7.01
2023-02-19T19:55:41.465Z,7.06
2023-02-19T19:58:17.301Z,7.11
2023-02-19T20:01:04.982Z,7.16
2023-02-19T20:03:36.798Z,7.20
2023-02-19T20:06:11.433Z,7.20
2023-02-19T20:08:45.181Z,7.21
2023-02-19T20:11:23.776Z,7.22
2023-02-19T20:13:58.949Z,7.23
2023-02-19T20:16:35.267Z,7.23
2023-02-19T20:19:09.676Z,7.24
2023-02-19T20:21:43.722Z,7.23
2023-02-19T20:24:19.813Z,7.22
2023-02-19T20:26:53.577Z,7.21
2023-02-19T20:29:29.833Z,7.20
2023-02-19T20:32:04.681Z,7.23
2023-02-19T20:34:38.560Z,7.27
2023-02-19T20:37:12.739Z,7.30
2023-02-19T20:39:46.969Z,7.24
2023-02-19T20:42:23.733Z,7.18
2023-02-19T20:44:57.674Z,7.11
2023-02-19T20:47:32.924Z,7.06
2023-02-19T20:50:09.271Z,7.04
2023-02-19T20:52:45.422Z,7.04
2023-02-19T20:55:19.880Z,7.06
2023-02-19T20:57:53.681Z,7.09
2023-02-19T21:00:28.122Z,7.13
2023-02-19T21:03:01.828Z,7.19
2023-02-19T21:05:37.792Z,7.22
2023-02-19T21:08:12.502Z,7.25
2023-02-19T21:10:47.943Z,7.28
2023-02-19T21:13:22.426Z,7.31
2023-02-19T21:15:57.638Z,7.33
2023-02-19T21:18:32.481Z,7.37
2023-02-19T21:21:06.943Z,7.45
2023-02-19T21:23:42.213Z,7.53
2023-02-19T21:26:16.242Z,7.61
2023-02-19T21:28:52.234Z,7.64
2023-02-19T21:31:26.390Z,7.60
2023-02-19T21:34:00.163Z,7.56
2023-02-19T21:36:33.732Z,7.47
2023-02-19T21:39:07.628Z,7.42
2023-02-19T21:41:42.128Z,7.34
2023-02-19T21:44:16.327Z,7.23
2023-02-19T21:46:50.667Z,7.19
2023-02-19T21:49:24.451Z,7.19
2023-02-19T21:51:58.546Z,7.19
2023-02-19T21:54:32.471Z,7.18
2023-02-19T21:57:09.890Z,7.18
2023-02-19T21:59:45.286Z,7.19
2023-02-19T22:02:20.334Z,7.21
2023-02-19T22:04:58.078Z,7.22
2023-02-19T22:07:31.929Z,7.23
2023-02-19T22:10:08.290Z,7.23
2023-02-19T22:12:41.796Z,7.22
2023-02-19T22:15:15.784Z,7.16
2023-02-19T22:17:50.121Z,7.10
2023-02-19T22:20:24.124Z,7.05
2023-02-19T22:22:57.529Z,7.00
2023-02-19T22:25:31.803Z,6.96
2023-02-19T22:28:08.050Z,6.94
2023-02-19T22:30:43.267Z,6.94
2023-02-19T22:33:16.939Z,6.96
2023-02-19T22:35:50.768Z,7.00
2023-02-19T22:38:24.236Z,7.06
2023-02-19T22:40:59.903Z,7.10
2023-02-19T22:43:33.873Z,7.13
2023-02-19T22:46:10.398Z,7.17
2023-02-19T22:48:44.435Z,7.20
2023-02-19T22:51:19.115Z,7.20
2023-02-19T22:53:54.397Z,7.20
2023-02-19T22:56:29.370Z,7.20
2023-02-19T22:59:03.108Z,7.19
2023-02-19T23:01:37.059Z,7.18
2023-02-19T23:04:10.718Z,7.17
2023-02-19T23:06:45.860Z,7.16
2023-02-19T23:09:24.179Z,7.13
2023-02-19T23:12:05.330Z,7.10
2023-02-19T23:14:38.894Z,7.08
2023-02-19T23:17:13.059Z,7.08
2023-02-19T23:19:46.634Z,7.09
2023-02-19T23:22:22.340Z,7.07
2023-02-19T23:24:56.305Z,7.06
2023-02-19T23:27:30.540Z,7.07
2023-02-19T23:30:04.111Z,7.12
2023-02-19T23:32:37.787Z,7.17
2023-02-19T23:35:14.198Z,7.23
2023-02-19T23:37:49.253Z,7.27
2023-02-19T23:40:23.589Z,7.34
2023-02-19T23:42:59.064Z,7.42
2023-02-19T23:45:32.559Z,7.50
2023-02-19T23:48:06.391Z,7.56
2023-02-19T23:50:41.912Z,7.57
2023-02-19T23:53:16.599Z,7.56
2023-02-19T23:55:50.537Z,7.57
2023-02-19T23:58:26.079Z,7.57
